sensor_id;sensor_type;location;lat;lon;timestamp;P1;durP1;ratioP1;P2;durP2;ratioP2
74215;SDS011;62577;53.378;-2.914;2022-07-29T00:00:43;8.68;;;5.40;;
74215;SDS011;62577;53.378;-2.914;2022-07-29T00:03:10;8.35;;;5.55;;
74215;SDS011;62577;53.378;-2.914;2022-07-29T00:05:37;7.38;;;4.88;;
74215;SDS011;62577;53.378;-2.914;2022-07-29T00:08:04;9.00;;;5.13;;
74215;SDS011;62577;53.378;-2.914;2022-07-29T00:10:30;7.00;;;5.15;;
74215;SDS011;62577;53.378;-2.914;2022-07-29T00:12:56;6.55;;;5.03;;
74215;SDS011;62577;53.378;-2.914;2022-07-29T00:15:22;7.78;;;5.13;;
74215;SDS011;62577;53.378;-2.914;2022-07-29T00:17:48;6.43;;;4.60;;
74215;SDS011;62577;53.378;-2.914;2022-07-29T00:20:14;9.38;;;5.68;;
74215;SDS011;62577;53.378;-2.914;2022-07-29T00:22:40;6.55;;;4.78;;
74215;SDS011;62577;53.378;-2.914;2022-07-29T00:25:06;6.45;;;4.70;;
74215;SDS011;62577;53.378;-2.914;2022-07-29T00:27:33;7.55;;;4.88;;
74215;SDS011;62577;53.378;-2.914;2022-07-29T00:29:59;8.13;;;5.55;;
74215;SDS011;62577;53.378;-2.914;2022-07-29T00:32:25;7.90;;;5.07;;
74215;SDS011;62577;53.378;-2.914;2022-07-29T00:34:51;7.97;;;5.40;;
74215;SDS011;62577;53.378;-2.914;2022-07-29T00:37:35;8.48;;;5.20;;
74215;SDS011;62577;53.378;-2.914;2022-07-29T00:40:02;9.07;;;5.65;;
74215;SDS011;62577;53.378;-2.914;2022-07-29T00:42:28;6.97;;;5.43;;
74215;SDS011;62577;53.378;-2.914;2022-07-29T00:44:54;8.02;;;5.40;;
74215;SDS011;62577;53.378;-2.914;2022-07-29T00:47:20;9.02;;;5.63;;
74215;SDS011;62577;53.378;-2.914;2022-07-29T00:49:46;8.73;;;6.30;;
74215;SDS011;62577;53.378;-2.914;2022-07-29T00:52:12;9.05;;;6.18;;
74215;SDS011;62577;53.378;-2.914;2022-07-29T00:54:39;8.73;;;6.28;;
74215;SDS011;62577;53.378;-2.914;2022-07-29T00:57:06;8.77;;;6.32;;
74215;SDS011;62577;53.378;-2.914;2022-07-29T00:59:32;8.15;;;6.18;;
74215;SDS011;62577;53.378;-2.914;2022-07-29T01:01:59;8.85;;;6.93;;
74215;SDS011;62577;53.378;-2.914;2022-07-29T01:04:25;8.65;;;6.30;;
74215;SDS011;62577;53.378;-2.914;2022-07-29T01:06:51;9.98;;;6.95;;
74215;SDS011;62577;53.378;-2.914;2022-07-29T01:09:19;6.97;;;6.28;;
74215;SDS011;62577;53.378;-2.914;2022-07-29T01:11:45;8.20;;;6.53;;
74215;SDS011;62577;53.378;-2.914;2022-07-29T01:14:13;7.75;;;6.40;;
74215;SDS011;62577;53.378;-2.914;2022-07-29T01:16:42;9.20;;;6.60;;
74215;SDS011;62577;53.378;-2.914;2022-07-29T01:21:57;8.95;;;6.97;;
74215;SDS011;62577;53.378;-2.914;2022-07-29T01:27:18;10.95;;;6.32;;
74215;SDS011;62577;53.378;-2.914;2022-07-29T01:29:55;10.07;;;7.18;;
74215;SDS011;62577;53.378;-2.914;2022-07-29T01:32:24;9.23;;;6.32;;
74215;SDS011;62577;53.378;-2.914;2022-07-29T01:37:25;9.40;;;7.70;;
74215;SDS011;62577;53.378;-2.914;2022-07-29T01:47:17;8.10;;;6.63;;
74215;SDS011;62577;53.378;-2.914;2022-07-29T01:49:46;8.63;;;7.78;;
74215;SDS011;62577;53.378;-2.914;2022-07-29T01:54:43;14.02;;;8.07;;
74215;SDS011;62577;53.378;-2.914;2022-07-29T01:57:14;10.75;;;8.00;;
74215;SDS011;62577;53.378;-2.914;2022-07-29T01:59:42;11.35;;;8.80;;
74215;SDS011;62577;53.378;-2.914;2022-07-29T02:02:09;13.73;;;9.07;;
74215;SDS011;62577;53.378;-2.914;2022-07-29T02:04:36;12.43;;;8.48;;
74215;SDS011;62577;53.378;-2.914;2022-07-29T02:07:04;14.65;;;9.07;;
74215;SDS011;62577;53.378;-2.914;2022-07-29T02:09:31;12.43;;;8.82;;
74215;SDS011;62577;53.378;-2.914;2022-07-29T02:11:59;10.27;;;7.65;;
74215;SDS011;62577;53.378;-2.914;2022-07-29T02:14:26;10.93;;;7.90;;
74215;SDS011;62577;53.378;-2.914;2022-07-29T02:16:54;11.52;;;8.32;;
74215;SDS011;62577;53.378;-2.914;2022-07-29T02:19:22;10.82;;;8.20;;
74215;SDS011;62577;53.378;-2.914;2022-07-29T02:21:49;12.38;;;8.48;;
74215;SDS011;62577;53.378;-2.914;2022-07-29T02:24:17;11.00;;;8.13;;
74215;SDS011;62577;53.378;-2.914;2022-07-29T02:26:43;9.15;;;7.72;;
74215;SDS011;62577;53.378;-2.914;2022-07-29T02:29:10;12.60;;;8.05;;
74215;SDS011;62577;53.378;-2.914;2022-07-29T02:31:38;10.82;;;8.15;;
74215;SDS011;62577;53.378;-2.914;2022-07-29T02:34:06;10.32;;;8.55;;
74215;SDS011;62577;53.378;-2.914;2022-07-29T02:36:34;11.95;;;8.68;;
74215;SDS011;62577;53.378;-2.914;2022-07-29T02:39:00;13.55;;;8.75;;
74215;SDS011;62577;53.378;-2.914;2022-07-29T02:41:32;11.45;;;9.52;;
74215;SDS011;62577;53.378;-2.914;2022-07-29T02:44:06;12.27;;;8.93;;
74215;SDS011;62577;53.378;-2.914;2022-07-29T02:46:34;13.32;;;9.55;;
74215;SDS011;62577;53.378;-2.914;2022-07-29T02:49:07;13.20;;;9.60;;
74215;SDS011;62577;53.378;-2.914;2022-07-29T02:51:54;13.85;;;9.13;;
74215;SDS011;62577;53.378;-2.914;2022-07-29T02:54:26;13.35;;;9.73;;
74215;SDS011;62577;53.378;-2.914;2022-07-29T02:56:58;14.95;;;9.40;;
74215;SDS011;62577;53.378;-2.914;2022-07-29T02:59:26;12.20;;;9.48;;
74215;SDS011;62577;53.378;-2.914;2022-07-29T03:01:54;12.20;;;9.80;;
74215;SDS011;62577;53.378;-2.914;2022-07-29T03:04:20;13.23;;;9.27;;
74215;SDS011;62577;53.378;-2.914;2022-07-29T03:06:48;13.38;;;8.40;;
74215;SDS011;62577;53.378;-2.914;2022-07-29T03:09:14;10.35;;;8.43;;
74215;SDS011;62577;53.378;-2.914;2022-07-29T03:11:41;11.40;;;8.80;;
74215;SDS011;62577;53.378;-2.914;2022-07-29T03:14:07;8.68;;;7.32;;
74215;SDS011;62577;53.378;-2.914;2022-07-29T03:16:34;9.85;;;7.22;;
74215;SDS011;62577;53.378;-2.914;2022-07-29T03:19:01;10.48;;;6.82;;
74215;SDS011;62577;53.378;-2.914;2022-07-29T03:21:28;10.30;;;6.35;;
74215;SDS011;62577;53.378;-2.914;2022-07-29T03:23:54;10.57;;;6.55;;
74215;SDS011;62577;53.378;-2.914;2022-07-29T03:26:20;11.15;;;6.85;;
74215;SDS011;62577;53.378;-2.914;2022-07-29T03:28:46;10.55;;;6.05;;
74215;SDS011;62577;53.378;-2.914;2022-07-29T03:31:13;8.10;;;5.78;;
74215;SDS011;62577;53.378;-2.914;2022-07-29T03:33:39;10.77;;;5.03;;
74215;SDS011;62577;53.378;-2.914;2022-07-29T03:36:05;6.93;;;4.18;;
74215;SDS011;62577;53.378;-2.914;2022-07-29T03:38:31;9.82;;;5.68;;
74215;SDS011;62577;53.378;-2.914;2022-07-29T03:43:26;9.73;;;5.28;;
74215;SDS011;62577;53.378;-2.914;2022-07-29T03:45:54;7.88;;;4.65;;
74215;SDS011;62577;53.378;-2.914;2022-07-29T03:48:21;8.95;;;4.93;;
74215;SDS011;62577;53.378;-2.914;2022-07-29T03:50:47;8.13;;;4.13;;
74215;SDS011;62577;53.378;-2.914;2022-07-29T03:53:13;8.93;;;4.10;;
74215;SDS011;62577;53.378;-2.914;2022-07-29T03:55:41;7.80;;;4.43;;
74215;SDS011;62577;53.378;-2.914;2022-07-29T03:58:07;7.95;;;4.20;;
74215;SDS011;62577;53.378;-2.914;2022-07-29T04:00:34;6.30;;;3.88;;
74215;SDS011;62577;53.378;-2.914;2022-07-29T04:03:01;6.80;;;3.65;;
74215;SDS011;62577;53.378;-2.914;2022-07-29T04:05:27;6.57;;;3.80;;
74215;SDS011;62577;53.378;-2.914;2022-07-29T04:07:53;7.93;;;3.53;;
74215;SDS011;62577;53.378;-2.914;2022-07-29T04:10:19;7.32;;;3.50;;
74215;SDS011;62577;53.378;-2.914;2022-07-29T04:12:45;6.25;;;3.42;;
74215;SDS011;62577;53.378;-2.914;2022-07-29T04:15:11;6.38;;;2.97;;
74215;SDS011;62577;53.378;-2.914;2022-07-29T04:17:38;9.20;;;3.17;;
74215;SDS011;62577;53.378;-2.914;2022-07-29T04:20:04;4.72;;;2.90;;
74215;SDS011;62577;53.378;-2.914;2022-07-29T04:22:30;4.97;;;2.83;;
74215;SDS011;62577;53.378;-2.914;2022-07-29T04:24:56;8.43;;;3.35;;
74215;SDS011;62577;53.378;-2.914;2022-07-29T04:27:22;6.22;;;3.05;;
74215;SDS011;62577;53.378;-2.914;2022-07-29T04:29:48;7.50;;;3.50;;
74215;SDS011;62577;53.378;-2.914;2022-07-29T04:32:14;6.00;;;2.50;;
74215;SDS011;62577;53.378;-2.914;2022-07-29T04:34:40;7.20;;;2.50;;
74215;SDS011;62577;53.378;-2.914;2022-07-29T04:37:06;8.52;;;2.70;;
74215;SDS011;62577;53.378;-2.914;2022-07-29T04:39:32;6.40;;;2.75;;
74215;SDS011;62577;53.378;-2.914;2022-07-29T04:41:58;5.50;;;2.53;;
74215;SDS011;62577;53.378;-2.914;2022-07-29T04:44:24;7.25;;;2.33;;
74215;SDS011;62577;53.378;-2.914;2022-07-29T04:46:51;5.70;;;2.80;;
74215;SDS011;62577;53.378;-2.914;2022-07-29T04:49:17;5.38;;;2.38;;
74215;SDS011;62577;53.378;-2.914;2022-07-29T04:51:43;4.78;;;2.17;;
74215;SDS011;62577;53.378;-2.914;2022-07-29T04:54:09;4.10;;;2.40;;
74215;SDS011;62577;53.378;-2.914;2022-07-29T04:56:35;8.73;;;2.22;;
74215;SDS011;62577;53.378;-2.914;2022-07-29T04:59:01;8.32;;;3.10;;
74215;SDS011;62577;53.378;-2.914;2022-07-29T05:01:27;6.50;;;3.20;;
74215;SDS011;62577;53.378;-2.914;2022-07-29T05:03:53;2.70;;;2.38;;
74215;SDS011;62577;53.378;-2.914;2022-07-29T05:06:19;9.93;;;3.10;;
74215;SDS011;62577;53.378;-2.914;2022-07-29T05:08:45;6.15;;;2.03;;
74215;SDS011;62577;53.378;-2.914;2022-07-29T05:11:11;5.80;;;2.55;;
74215;SDS011;62577;53.378;-2.914;2022-07-29T05:13:37;3.90;;;2.03;;
74215;SDS011;62577;53.378;-2.914;2022-07-29T05:16:03;3.50;;;1.98;;
74215;SDS011;62577;53.378;-2.914;2022-07-29T05:18:29;5.55;;;2.17;;
74215;SDS011;62577;53.378;-2.914;2022-07-29T05:20:55;4.15;;;2.15;;
74215;SDS011;62577;53.378;-2.914;2022-07-29T05:23:21;4.57;;;2.00;;
74215;SDS011;62577;53.378;-2.914;2022-07-29T05:25:47;3.33;;;2.08;;
74215;SDS011;62577;53.378;-2.914;2022-07-29T05:28:15;4.57;;;1.83;;
74215;SDS011;62577;53.378;-2.914;2022-07-29T05:30:41;5.93;;;2.17;;
74215;SDS011;62577;53.378;-2.914;2022-07-29T05:33:09;5.57;;;2.25;;
74215;SDS011;62577;53.378;-2.914;2022-07-29T05:35:35;6.30;;;2.20;;
74215;SDS011;62577;53.378;-2.914;2022-07-29T05:38:02;6.18;;;2.30;;
74215;SDS011;62577;53.378;-2.914;2022-07-29T05:40:28;4.30;;;1.88;;
74215;SDS011;62577;53.378;-2.914;2022-07-29T05:42:54;4.28;;;1.73;;
74215;SDS011;62577;53.378;-2.914;2022-07-29T05:45:21;3.28;;;1.85;;
74215;SDS011;62577;53.378;-2.914;2022-07-29T05:47:48;3.78;;;1.88;;
74215;SDS011;62577;53.378;-2.914;2022-07-29T05:50:14;4.05;;;1.90;;
74215;SDS011;62577;53.378;-2.914;2022-07-29T05:52:40;3.90;;;1.63;;
74215;SDS011;62577;53.378;-2.914;2022-07-29T05:55:06;3.10;;;1.88;;
74215;SDS011;62577;53.378;-2.914;2022-07-29T05:57:32;4.03;;;1.95;;
74215;SDS011;62577;53.378;-2.914;2022-07-29T05:59:58;3.83;;;2.00;;
74215;SDS011;62577;53.378;-2.914;2022-07-29T06:02:24;3.70;;;1.73;;
74215;SDS011;62577;53.378;-2.914;2022-07-29T06:04:50;4.00;;;1.75;;
74215;SDS011;62577;53.378;-2.914;2022-07-29T06:07:16;4.85;;;1.80;;
74215;SDS011;62577;53.378;-2.914;2022-07-29T06:09:42;3.65;;;1.60;;
74215;SDS011;62577;53.378;-2.914;2022-07-29T06:12:08;3.92;;;1.80;;
74215;SDS011;62577;53.378;-2.914;2022-07-29T06:14:35;4.15;;;1.73;;
74215;SDS011;62577;53.378;-2.914;2022-07-29T06:17:02;6.03;;;2.30;;
74215;SDS011;62577;53.378;-2.914;2022-07-29T06:19:28;3.80;;;1.63;;
74215;SDS011;62577;53.378;-2.914;2022-07-29T06:21:54;5.22;;;2.03;;
74215;SDS011;62577;53.378;-2.914;2022-07-29T06:24:20;5.43;;;2.25;;
74215;SDS011;62577;53.378;-2.914;2022-07-29T06:26:46;6.28;;;2.03;;
74215;SDS011;62577;53.378;-2.914;2022-07-29T06:29:13;5.13;;;2.10;;
74215;SDS011;62577;53.378;-2.914;2022-07-29T06:31:39;4.97;;;1.70;;
74215;SDS011;62577;53.378;-2.914;2022-07-29T06:34:05;3.28;;;1.50;;
74215;SDS011;62577;53.378;-2.914;2022-07-29T06:36:33;5.70;;;2.22;;
74215;SDS011;62577;53.378;-2.914;2022-07-29T06:38:59;4.78;;;1.48;;
74215;SDS011;62577;53.378;-2.914;2022-07-29T06:41:25;3.80;;;1.73;;
74215;SDS011;62577;53.378;-2.914;2022-07-29T06:43:51;4.00;;;1.92;;
74215;SDS011;62577;53.378;-2.914;2022-07-29T06:46:18;4.55;;;2.13;;
74215;SDS011;62577;53.378;-2.914;2022-07-29T06:48:45;6.35;;;2.10;;
74215;SDS011;62577;53.378;-2.914;2022-07-29T06:51:12;5.65;;;2.10;;
74215;SDS011;62577;53.378;-2.914;2022-07-29T06:53:38;6.40;;;1.80;;
74215;SDS011;62577;53.378;-2.914;2022-07-29T06:56:05;7.00;;;1.90;;
74215;SDS011;62577;53.378;-2.914;2022-07-29T06:58:33;3.33;;;1.80;;
74215;SDS011;62577;53.378;-2.914;2022-07-29T07:01:01;3.38;;;1.83;;
74215;SDS011;62577;53.378;-2.914;2022-07-29T07:03:27;7.07;;;2.15;;
74215;SDS011;62577;53.378;-2.914;2022-07-29T07:05:53;3.05;;;1.40;;
74215;SDS011;62577;53.378;-2.914;2022-07-29T07:08:20;3.15;;;1.77;;
74215;SDS011;62577;53.378;-2.914;2022-07-29T07:10:47;12.23;;;1.92;;
74215;SDS011;62577;53.378;-2.914;2022-07-29T07:13:13;3.63;;;1.48;;
74215;SDS011;62577;53.378;-2.914;2022-07-29T07:15:39;3.10;;;1.85;;
74215;SDS011;62577;53.378;-2.914;2022-07-29T07:18:06;4.15;;;1.45;;
74215;SDS011;62577;53.378;-2.914;2022-07-29T07:20:33;4.43;;;2.00;;
74215;SDS011;62577;53.378;-2.914;2022-07-29T07:22:59;2.53;;;1.20;;
74215;SDS011;62577;53.378;-2.914;2022-07-29T07:25:25;5.32;;;1.58;;
74215;SDS011;62577;53.378;-2.914;2022-07-29T07:27:51;7.68;;;2.10;;
74215;SDS011;62577;53.378;-2.914;2022-07-29T07:30:17;5.78;;;1.98;;
74215;SDS011;62577;53.378;-2.914;2022-07-29T07:32:43;3.58;;;1.63;;
74215;SDS011;62577;53.378;-2.914;2022-07-29T07:35:09;3.65;;;1.65;;
74215;SDS011;62577;53.378;-2.914;2022-07-29T07:37:36;2.85;;;1.42;;
74215;SDS011;62577;53.378;-2.914;2022-07-29T07:40:02;7.05;;;1.70;;
74215;SDS011;62577;53.378;-2.914;2022-07-29T07:42:29;3.35;;;1.60;;
74215;SDS011;62577;53.378;-2.914;2022-07-29T07:44:55;3.25;;;1.52;;
74215;SDS011;62577;53.378;-2.914;2022-07-29T07:47:21;9.45;;;1.70;;
74215;SDS011;62577;53.378;-2.914;2022-07-29T07:49:51;4.78;;;1.75;;
74215;SDS011;62577;53.378;-2.914;2022-07-29T07:52:18;3.95;;;1.80;;
74215;SDS011;62577;53.378;-2.914;2022-07-29T07:54:44;3.55;;;1.55;;
74215;SDS011;62577;53.378;-2.914;2022-07-29T07:57:11;4.25;;;1.80;;
74215;SDS011;62577;53.378;-2.914;2022-07-29T07:59:37;5.90;;;1.75;;
74215;SDS011;62577;53.378;-2.914;2022-07-29T08:02:03;4.70;;;1.70;;
74215;SDS011;62577;53.378;-2.914;2022-07-29T08:04:29;2.78;;;1.40;;
74215;SDS011;62577;53.378;-2.914;2022-07-29T08:06:56;5.82;;;1.90;;
74215;SDS011;62577;53.378;-2.914;2022-07-29T08:09:22;4.03;;;2.08;;
74215;SDS011;62577;53.378;-2.914;2022-07-29T08:11:48;5.72;;;1.95;;
74215;SDS011;62577;53.378;-2.914;2022-07-29T08:14:14;4.10;;;1.90;;
74215;SDS011;62577;53.378;-2.914;2022-07-29T08:16:40;4.45;;;1.63;;
74215;SDS011;62577;53.378;-2.914;2022-07-29T08:19:07;5.03;;;2.22;;
74215;SDS011;62577;53.378;-2.914;2022-07-29T08:21:34;6.45;;;2.10;;
74215;SDS011;62577;53.378;-2.914;2022-07-29T08:24:00;7.55;;;2.00;;
74215;SDS011;62577;53.378;-2.914;2022-07-29T08:26:44;7.10;;;2.00;;
74215;SDS011;62577;53.378;-2.914;2022-07-29T08:29:11;6.10;;;2.10;;
74215;SDS011;62577;53.378;-2.914;2022-07-29T08:31:37;4.22;;;1.73;;
74215;SDS011;62577;53.378;-2.914;2022-07-29T08:34:03;4.53;;;1.98;;
74215;SDS011;62577;53.378;-2.914;2022-07-29T08:36:30;4.32;;;1.90;;
74215;SDS011;62577;53.378;-2.914;2022-07-29T08:38:56;5.68;;;2.05;;
74215;SDS011;62577;53.378;-2.914;2022-07-29T08:41:22;3.53;;;2.13;;
74215;SDS011;62577;53.378;-2.914;2022-07-29T08:43:49;4.65;;;2.08;;
74215;SDS011;62577;53.378;-2.914;2022-07-29T08:46:16;4.65;;;2.20;;
74215;SDS011;62577;53.378;-2.914;2022-07-29T08:48:42;3.80;;;2.10;;
74215;SDS011;62577;53.378;-2.914;2022-07-29T08:51:08;3.97;;;2.08;;
74215;SDS011;62577;53.378;-2.914;2022-07-29T08:53:39;5.90;;;2.08;;
74215;SDS011;62577;53.378;-2.914;2022-07-29T08:56:06;4.22;;;1.70;;
74215;SDS011;62577;53.378;-2.914;2022-07-29T08:58:33;9.55;;;2.10;;
74215;SDS011;62577;53.378;-2.914;2022-07-29T09:01:00;4.47;;;2.10;;
74215;SDS011;62577;53.378;-2.914;2022-07-29T09:03:30;4.90;;;2.22;;
74215;SDS011;62577;53.378;-2.914;2022-07-29T09:05:57;3.63;;;1.80;;
74215;SDS011;62577;53.378;-2.914;2022-07-29T09:08:24;4.35;;;2.00;;
74215;SDS011;62577;53.378;-2.914;2022-07-29T09:10:50;3.50;;;1.70;;
74215;SDS011;62577;53.378;-2.914;2022-07-29T09:13:16;4.93;;;2.10;;
74215;SDS011;62577;53.378;-2.914;2022-07-29T09:15:43;4.70;;;2.67;;
74215;SDS011;62577;53.378;-2.914;2022-07-29T09:18:09;6.57;;;2.50;;
74215;SDS011;62577;53.378;-2.914;2022-07-29T09:20:35;6.47;;;2.35;;
74215;SDS011;62577;53.378;-2.914;2022-07-29T09:23:31;7.85;;;2.60;;
74215;SDS011;62577;53.378;-2.914;2022-07-29T09:25:57;3.97;;;2.17;;
74215;SDS011;62577;53.378;-2.914;2022-07-29T09:28:30;3.38;;;1.52;;
74215;SDS011;62577;53.378;-2.914;2022-07-29T09:30:57;4.20;;;2.60;;
74215;SDS011;62577;53.378;-2.914;2022-07-29T09:33:24;4.18;;;2.47;;
74215;SDS011;62577;53.378;-2.914;2022-07-29T09:36:00;6.22;;;2.85;;
74215;SDS011;62577;53.378;-2.914;2022-07-29T09:38:28;3.95;;;3.03;;
74215;SDS011;62577;53.378;-2.914;2022-07-29T09:40:57;6.45;;;3.13;;
74215;SDS011;62577;53.378;-2.914;2022-07-29T09:43:23;8.60;;;4.15;;
74215;SDS011;62577;53.378;-2.914;2022-07-29T09:45:49;6.50;;;2.95;;
74215;SDS011;62577;53.378;-2.914;2022-07-29T09:48:22;5.97;;;3.67;;
74215;SDS011;62577;53.378;-2.914;2022-07-29T09:50:49;5.55;;;3.83;;
74215;SDS011;62577;53.378;-2.914;2022-07-29T09:55:57;7.15;;;4.10;;
74215;SDS011;62577;53.378;-2.914;2022-07-29T09:58:23;6.70;;;3.03;;
74215;SDS011;62577;53.378;-2.914;2022-07-29T10:00:50;4.90;;;2.88;;
74215;SDS011;62577;53.378;-2.914;2022-07-29T10:03:17;7.10;;;3.15;;
74215;SDS011;62577;53.378;-2.914;2022-07-29T10:05:43;9.75;;;3.40;;
74215;SDS011;62577;53.378;-2.914;2022-07-29T10:08:10;7.65;;;3.85;;
74215;SDS011;62577;53.378;-2.914;2022-07-29T10:10:41;7.95;;;3.47;;
74215;SDS011;62577;53.378;-2.914;2022-07-29T10:13:11;5.85;;;3.17;;
74215;SDS011;62577;53.378;-2.914;2022-07-29T10:15:38;6.38;;;3.53;;
74215;SDS011;62577;53.378;-2.914;2022-07-29T10:18:06;6.60;;;3.70;;
74215;SDS011;62577;53.378;-2.914;2022-07-29T10:20:32;6.10;;;4.20;;
74215;SDS011;62577;53.378;-2.914;2022-07-29T10:22:59;7.25;;;3.35;;
74215;SDS011;62577;53.378;-2.914;2022-07-29T10:25:25;5.47;;;3.55;;
74215;SDS011;62577;53.378;-2.914;2022-07-29T10:27:51;6.07;;;4.10;;
74215;SDS011;62577;53.378;-2.914;2022-07-29T10:30:18;7.68;;;3.58;;
74215;SDS011;62577;53.378;-2.914;2022-07-29T10:43:21;5.22;;;2.90;;
74215;SDS011;62577;53.378;-2.914;2022-07-29T10:45:48;6.55;;;3.00;;
74215;SDS011;62577;53.378;-2.914;2022-07-29T10:48:15;5.72;;;3.50;;
74215;SDS011;62577;53.378;-2.914;2022-07-29T10:50:57;6.15;;;3.53;;
74215;SDS011;62577;53.378;-2.914;2022-07-29T10:53:25;8.48;;;3.50;;
74215;SDS011;62577;53.378;-2.914;2022-07-29T10:56:27;8.00;;;3.55;;
74215;SDS011;62577;53.378;-2.914;2022-07-29T11:01:38;7.80;;;4.10;;
74215;SDS011;62577;53.378;-2.914;2022-07-29T11:04:04;5.75;;;4.20;;
74215;SDS011;62577;53.378;-2.914;2022-07-29T11:09:15;8.00;;;4.30;;
74215;SDS011;62577;53.378;-2.914;2022-07-29T11:11:42;12.55;;;4.97;;
74215;SDS011;62577;53.378;-2.914;2022-07-29T11:14:08;8.73;;;5.28;;
74215;SDS011;62577;53.378;-2.914;2022-07-29T11:19:19;7.22;;;4.13;;
74215;SDS011;62577;53.378;-2.914;2022-07-29T11:21:45;8.65;;;3.97;;
74215;SDS011;62577;53.378;-2.914;2022-07-29T11:24:25;7.82;;;5.53;;
74215;SDS011;62577;53.378;-2.914;2022-07-29T11:29:55;6.95;;;4.57;;
74215;SDS011;62577;53.378;-2.914;2022-07-29T11:32:23;9.75;;;4.68;;
74215;SDS011;62577;53.378;-2.914;2022-07-29T11:35:09;10.77;;;6.10;;
74215;SDS011;62577;53.378;-2.914;2022-07-29T11:37:35;11.23;;;4.88;;
74215;SDS011;62577;53.378;-2.914;2022-07-29T11:45:02;10.65;;;6.03;;
74215;SDS011;62577;53.378;-2.914;2022-07-29T11:47:32;7.70;;;5.07;;
74215;SDS011;62577;53.378;-2.914;2022-07-29T11:50:00;7.63;;;5.63;;
74215;SDS011;62577;53.378;-2.914;2022-07-29T11:52:37;7.50;;;6.28;;
74215;SDS011;62577;53.378;-2.914;2022-07-29T11:55:08;9.90;;;6.32;;
74215;SDS011;62577;53.378;-2.914;2022-07-29T11:57:34;7.68;;;6.05;;
74215;SDS011;62577;53.378;-2.914;2022-07-29T12:00:01;10.40;;;5.70;;
74215;SDS011;62577;53.378;-2.914;2022-07-29T12:02:38;9.23;;;6.47;;
74215;SDS011;62577;53.378;-2.914;2022-07-29T12:05:04;8.88;;;6.25;;
74215;SDS011;62577;53.378;-2.914;2022-07-29T12:07:31;7.78;;;6.13;;
74215;SDS011;62577;53.378;-2.914;2022-07-29T12:09:57;9.25;;;6.22;;
74215;SDS011;62577;53.378;-2.914;2022-07-29T12:12:23;7.75;;;6.18;;
74215;SDS011;62577;53.378;-2.914;2022-07-29T12:14:49;9.48;;;6.35;;
74215;SDS011;62577;53.378;-2.914;2022-07-29T12:17:29;9.65;;;7.20;;
74215;SDS011;62577;53.378;-2.914;2022-07-29T12:19:56;10.82;;;7.10;;
74215;SDS011;62577;53.378;-2.914;2022-07-29T12:22:26;10.13;;;6.38;;
74215;SDS011;62577;53.378;-2.914;2022-07-29T12:24:53;13.32;;;6.68;;
74215;SDS011;62577;53.378;-2.914;2022-07-29T12:27:19;8.95;;;6.78;;
74215;SDS011;62577;53.378;-2.914;2022-07-29T12:29:54;8.98;;;6.53;;
74215;SDS011;62577;53.378;-2.914;2022-07-29T12:32:21;14.15;;;7.25;;
74215;SDS011;62577;53.378;-2.914;2022-07-29T12:34:47;8.70;;;6.53;;
74215;SDS011;62577;53.378;-2.914;2022-07-29T12:37:13;8.90;;;6.65;;
74215;SDS011;62577;53.378;-2.914;2022-07-29T12:39:39;8.15;;;6.97;;
74215;SDS011;62577;53.378;-2.914;2022-07-29T12:42:12;8.82;;;6.47;;
74215;SDS011;62577;53.378;-2.914;2022-07-29T12:44:46;8.57;;;6.13;;
74215;SDS011;62577;53.378;-2.914;2022-07-29T12:47:12;9.27;;;6.95;;
74215;SDS011;62577;53.378;-2.914;2022-07-29T12:49:38;9.40;;;6.70;;
74215;SDS011;62577;53.378;-2.914;2022-07-29T12:52:23;13.60;;;7.53;;
74215;SDS011;62577;53.378;-2.914;2022-07-29T12:54:49;10.98;;;7.53;;
74215;SDS011;62577;53.378;-2.914;2022-07-29T12:57:15;11.23;;;7.43;;
74215;SDS011;62577;53.378;-2.914;2022-07-29T12:59:41;10.93;;;7.72;;
74215;SDS011;62577;53.378;-2.914;2022-07-29T13:02:19;8.60;;;6.55;;
74215;SDS011;62577;53.378;-2.914;2022-07-29T13:04:54;13.35;;;7.85;;
74215;SDS011;62577;53.378;-2.914;2022-07-29T13:07:23;9.73;;;7.07;;
74215;SDS011;62577;53.378;-2.914;2022-07-29T13:09:50;10.00;;;6.90;;
74215;SDS011;62577;53.378;-2.914;2022-07-29T13:12:16;10.20;;;7.20;;
74215;SDS011;62577;53.378;-2.914;2022-07-29T13:14:46;8.77;;;6.88;;
74215;SDS011;62577;53.378;-2.914;2022-07-29T13:17:14;12.38;;;7.75;;
74215;SDS011;62577;53.378;-2.914;2022-07-29T13:19:41;8.88;;;7.32;;
74215;SDS011;62577;53.378;-2.914;2022-07-29T13:22:15;12.60;;;7.68;;
74215;SDS011;62577;53.378;-2.914;2022-07-29T13:25:00;10.25;;;6.65;;
74215;SDS011;62577;53.378;-2.914;2022-07-29T13:27:33;10.38;;;7.32;;
74215;SDS011;62577;53.378;-2.914;2022-07-29T13:32:26;9.43;;;6.47;;
74215;SDS011;62577;53.378;-2.914;2022-07-29T13:34:52;6.88;;;6.18;;
74215;SDS011;62577;53.378;-2.914;2022-07-29T13:37:19;9.50;;;6.32;;
74215;SDS011;62577;53.378;-2.914;2022-07-29T13:39:45;12.05;;;6.57;;
74215;SDS011;62577;53.378;-2.914;2022-07-29T13:42:12;9.75;;;7.05;;
74215;SDS011;62577;53.378;-2.914;2022-07-29T13:44:41;7.25;;;6.10;;
74215;SDS011;62577;53.378;-2.914;2022-07-29T13:47:07;7.93;;;5.75;;
74215;SDS011;62577;53.378;-2.914;2022-07-29T13:49:33;14.05;;;7.32;;
74215;SDS011;62577;53.378;-2.914;2022-07-29T13:52:00;10.63;;;6.63;;
74215;SDS011;62577;53.378;-2.914;2022-07-29T13:54:26;9.15;;;6.45;;
74215;SDS011;62577;53.378;-2.914;2022-07-29T13:56:52;8.40;;;6.15;;
74215;SDS011;62577;53.378;-2.914;2022-07-29T13:59:18;13.95;;;6.70;;
74215;SDS011;62577;53.378;-2.914;2022-07-29T14:01:44;9.07;;;6.50;;
74215;SDS011;62577;53.378;-2.914;2022-07-29T14:04:10;8.50;;;6.45;;
74215;SDS011;62577;53.378;-2.914;2022-07-29T14:06:36;6.78;;;4.93;;
74215;SDS011;62577;53.378;-2.914;2022-07-29T14:09:03;10.55;;;6.82;;
74215;SDS011;62577;53.378;-2.914;2022-07-29T14:11:33;10.45;;;5.80;;
74215;SDS011;62577;53.378;-2.914;2022-07-29T14:13:59;8.25;;;5.78;;
74215;SDS011;62577;53.378;-2.914;2022-07-29T14:16:25;11.07;;;5.72;;
74215;SDS011;62577;53.378;-2.914;2022-07-29T14:18:51;9.60;;;6.38;;
74215;SDS011;62577;53.378;-2.914;2022-07-29T14:21:17;7.82;;;6.15;;
74215;SDS011;62577;53.378;-2.914;2022-07-29T14:23:44;9.82;;;6.95;;
74215;SDS011;62577;53.378;-2.914;2022-07-29T14:26:10;9.60;;;7.05;;
74215;SDS011;62577;53.378;-2.914;2022-07-29T14:28:36;10.82;;;6.70;;
74215;SDS011;62577;53.378;-2.914;2022-07-29T14:31:02;8.77;;;6.47;;
74215;SDS011;62577;53.378;-2.914;2022-07-29T14:33:28;8.88;;;6.72;;
74215;SDS011;62577;53.378;-2.914;2022-07-29T14:35:54;9.70;;;6.22;;
74215;SDS011;62577;53.378;-2.914;2022-07-29T14:38:20;11.93;;;6.97;;
74215;SDS011;62577;53.378;-2.914;2022-07-29T14:40:46;10.68;;;6.22;;
74215;SDS011;62577;53.378;-2.914;2022-07-29T14:43:12;8.20;;;5.82;;
74215;SDS011;62577;53.378;-2.914;2022-07-29T14:45:39;6.97;;;5.60;;
74215;SDS011;62577;53.378;-2.914;2022-07-29T14:48:05;8.23;;;5.40;;
74215;SDS011;62577;53.378;-2.914;2022-07-29T14:50:31;9.60;;;5.28;;
74215;SDS011;62577;53.378;-2.914;2022-07-29T14:52:57;8.82;;;5.88;;
74215;SDS011;62577;53.378;-2.914;2022-07-29T14:55:23;12.88;;;6.20;;
74215;SDS011;62577;53.378;-2.914;2022-07-29T14:57:49;9.75;;;7.05;;
74215;SDS011;62577;53.378;-2.914;2022-07-29T15:00:15;9.55;;;6.90;;
74215;SDS011;62577;53.378;-2.914;2022-07-29T15:02:42;10.32;;;6.20;;
74215;SDS011;62577;53.378;-2.914;2022-07-29T15:05:08;7.25;;;5.10;;
74215;SDS011;62577;53.378;-2.914;2022-07-29T15:07:34;9.98;;;6.25;;
74215;SDS011;62577;53.378;-2.914;2022-07-29T15:10:00;8.40;;;6.95;;
74215;SDS011;62577;53.378;-2.914;2022-07-29T15:12:27;7.85;;;6.70;;
74215;SDS011;62577;53.378;-2.914;2022-07-29T15:14:53;10.35;;;6.85;;
74215;SDS011;62577;53.378;-2.914;2022-07-29T15:17:19;8.30;;;5.20;;
74215;SDS011;62577;53.378;-2.914;2022-07-29T15:19:45;11.18;;;5.85;;
74215;SDS011;62577;53.378;-2.914;2022-07-29T15:22:11;8.38;;;5.45;;
74215;SDS011;62577;53.378;-2.914;2022-07-29T15:24:37;8.45;;;5.72;;